Time;durP1;ratioP1;P1;durP2;ratioP2;P2;SDS_P1;SDS_P2;PMS_P1;PMS_P2;Temp;Humidity;BMP_temperature;BMP_pressure;BME280_temperature;BME280_humidity;BME280_pressure;Samples;Min_cycle;Max_cycle;Signal;HPM_P1;HPM_P2
2023/08/01 00:00:08;;;;;;;17.85;17.05;;;16.90;99.90;;;;;;5040321;28;20057;-80
2023/08/01 00:02:42;;;;;;;18.02;16.90;;;16.90;99.90;;;;;;5043072;28;20047;-81
2023/08/01 00:05:09;;;;;;;18.80;17.77;;;16.90;99.90;;;;;;5040724;28;20029;-81
2023/08/01 00:07:35;;;;;;;17.92;16.83;;;16.90;99.90;;;;;;5043793;28;20040;-81
2023/08/01 00:10:02;;;;;;;18.45;17.45;;;16.80;99.90;;;;;;5040470;28;20033;-81
2023/08/01 00:12:28;;;;;;;18.05;17.15;;;16.80;99.90;;;;;;5038127;28;20033;-81
2023/08/01 00:14:54;;;;;;;17.33;16.20;;;16.80;99.90;;;;;;5052293;28;20041;-80
2023/08/01 00:17:20;;;;;;;19.77;18.70;;;16.80;99.90;;;;;;5038015;28;20049;-79
2023/08/01 00:19:47;;;;;;;18.45;17.35;;;16.80;99.90;;;;;;5039772;28;20033;-80
2023/08/01 00:22:13;;;;;;;17.35;16.27;;;16.90;99.90;;;;;;5038594;28;20037;-79
2023/08/01 00:24:39;;;;;;;19.88;18.83;;;16.80;99.90;;;;;;5040083;28;20040;-80
2023/08/01 00:27:08;;;;;;;19.67;18.63;;;16.90;99.90;;;;;;5042004;28;20028;-78
2023/08/01 00:29:35;;;;;;;17.85;16.95;;;16.90;99.90;;;;;;5039609;28;20041;-80
2023/08/01 00:32:01;;;;;;;17.50;16.67;;;16.80;99.90;;;;;;5043179;28;20040;-80
2023/08/01 00:34:27;;;;;;;16.90;15.75;;;16.80;99.90;;;;;;5037802;28;20382;-80
2023/08/01 00:36:53;;;;;;;17.85;16.67;;;16.80;99.90;;;;;;5039151;28;20030;-81
2023/08/01 00:39:19;;;;;;;19.50;18.40;;;16.80;99.90;;;;;;5053439;28;20359;-80
2023/08/01 00:41:46;;;;;;;16.95;15.88;;;16.90;99.90;;;;;;5039190;28;20387;-79
2023/08/01 00:44:12;;;;;;;19.05;17.95;;;16.80;99.90;;;;;;5032051;28;20042;-79
2023/08/01 00:46:38;;;;;;;19.08;18.10;;;16.80;99.90;;;;;;5039035;28;20482;-81
2023/08/01 00:49:04;;;;;;;18.90;17.80;;;16.80;99.90;;;;;;5041560;28;20037;-80
2023/08/01 00:51:32;;;;;;;18.85;17.90;;;16.80;99.90;;;;;;5039347;28;20030;-80
2023/08/01 00:53:59;;;;;;;17.88;16.77;;;16.80;99.90;;;;;;5038273;28;20451;-80
2023/08/01 00:56:26;;;;;;;20.63;19.20;;;16.80;99.90;;;;;;5043382;28;20037;-80
2023/08/01 00:58:52;;;;;;;18.00;16.80;;;16.80;99.90;;;;;;5032231;28;21064;-80
2023/08/01 01:01:18;;;;;;;22.02;20.63;;;16.80;99.90;;;;;;5051103;28;20037;-80
2023/08/01 01:03:45;;;;;;;18.75;17.52;;;16.80;99.90;;;;;;5036088;28;20029;-83
2023/08/01 01:06:22;;;;;;;19.73;18.52;;;16.80;99.90;;;;;;5037870;28;20032;-83
2023/08/01 01:08:48;;;;;;;19.48;18.27;;;16.80;99.90;;;;;;5037302;28;20096;-83
2023/08/01 01:11:14;;;;;;;17.58;16.55;;;16.80;99.90;;;;;;5039833;28;20344;-83
2023/08/01 01:13:41;;;;;;;20.15;19.13;;;16.90;99.90;;;;;;5038488;28;20048;-83
2023/08/01 01:16:07;;;;;;;19.52;18.50;;;16.90;99.90;;;;;;5039582;28;20033;-81
2023/08/01 01:18:33;;;;;;;21.08;19.80;;;16.90;99.90;;;;;;5036521;28;20044;-80
2023/08/01 01:21:00;;;;;;;22.60;21.05;;;16.90;99.90;;;;;;5038549;28;20382;-80
2023/08/01 01:23:28;;;;;;;18.52;17.42;;;16.90;99.90;;;;;;5040306;28;20030;-80
2023/08/01 01:25:56;;;;;;;19.38;18.27;;;16.90;99.90;;;;;;5039256;28;20029;-81
2023/08/01 01:28:23;;;;;;;18.50;17.35;;;16.90;99.90;;;;;;5039920;28;20033;-81
2023/08/01 01:30:49;;;;;;;20.98;19.73;;;17.00;99.90;;;;;;5051473;28;20635;-81
2023/08/01 01:33:16;;;;;;;21.75;20.40;;;16.90;99.90;;;;;;5042408;28;20100;-79
2023/08/01 01:35:42;;;;;;;19.25;18.17;;;16.90;99.90;;;;;;5042946;28;20039;-80
2023/08/01 01:38:08;;;;;;;18.77;17.77;;;17.00;99.90;;;;;;5059245;28;20033;-82
2023/08/01 01:40:35;;;;;;;18.88;17.58;;;16.90;99.90;;;;;;5039162;28;20395;-80
2023/08/01 01:43:01;;;;;;;20.33;19.23;;;17.00;99.90;;;;;;5037262;28;20033;-78
2023/08/01 01:45:27;;;;;;;22.48;21.27;;;16.90;99.90;;;;;;5039072;28;20030;-79
2023/08/01 01:47:54;;;;;;;22.63;21.52;;;16.90;99.90;;;;;;5044481;28;20046;-79
2023/08/01 01:50:20;;;;;;;22.65;21.40;;;16.90;99.90;;;;;;5039548;28;20044;-78
2023/08/01 01:52:46;;;;;;;19.67;18.52;;;16.90;99.90;;;;;;5036818;28;20029;-81
2023/08/01 01:55:12;;;;;;;20.83;19.50;;;16.90;99.90;;;;;;5044224;28;20029;-79
2023/08/01 01:57:40;;;;;;;18.83;17.77;;;16.90;99.90;;;;;;5040371;28;20116;-81
2023/08/01 02:00:13;;;;;;;19.33;18.25;;;16.90;99.90;;;;;;5038590;28;20056;-79
2023/08/01 02:02:39;;;;;;;19.85;18.35;;;16.90;99.90;;;;;;5050224;28;20045;-78
2023/08/01 02:05:06;;;;;;;19.23;18.13;;;16.90;99.90;;;;;;5059651;28;20040;-78
2023/08/01 02:07:33;;;;;;;21.13;19.92;;;16.90;99.90;;;;;;5039240;28;20029;-79
2023/08/01 02:10:00;;;;;;;20.65;19.23;;;16.90;99.90;;;;;;5046975;28;20052;-79
2023/08/01 02:12:34;;;;;;;20.58;19.38;;;16.90;99.90;;;;;;5036308;28;20061;-77
2023/08/01 02:15:00;;;;;;;19.05;18.05;;;16.80;99.90;;;;;;5042450;28;20053;-78
2023/08/01 02:17:26;;;;;;;22.65;21.15;;;16.90;99.90;;;;;;5056492;28;20399;-78
2023/08/01 02:19:53;;;;;;;21.50;20.30;;;16.90;99.90;;;;;;5041023;28;20055;-79
2023/08/01 02:22:19;;;;;;;20.55;19.35;;;16.90;99.90;;;;;;5060933;28;20037;-79
2023/08/01 02:24:45;;;;;;;21.08;19.63;;;16.80;99.90;;;;;;5033662;28;20052;-80
2023/08/01 02:27:11;;;;;;;23.55;21.75;;;16.80;99.90;;;;;;5037544;28;20025;-81
2023/08/01 02:29:38;;;;;;;20.67;19.45;;;16.80;99.90;;;;;;5041161;28;20037;-82
2023/08/01 02:32:04;;;;;;;20.38;19.08;;;16.80;99.90;;;;;;5042123;28;20033;-81
2023/08/01 02:34:30;;;;;;;23.27;21.75;;;16.80;99.90;;;;;;5036734;28;20033;-82
2023/08/01 02:36:56;;;;;;;23.02;21.30;;;16.80;1.00;;;;;;5040504;28;20024;-81
2023/08/01 02:39:22;;;;;;;22.77;21.33;;;16.80;1.00;;;;;;5041745;28;20033;-81
2023/08/01 02:41:48;;;;;;;22.42;21.02;;;16.80;1.00;;;;;;5041116;28;20033;-80
2023/08/01 02:44:16;;;;;;;19.98;18.75;;;16.70;1.00;;;;;;5036493;28;20462;-80
2023/08/01 02:46:42;;;;;;;21.60;20.25;;;16.70;1.00;;;;;;5039596;28;20029;-80
2023/08/01 02:49:08;;;;;;;21.73;20.48;;;16.70;1.00;;;;;;5038219;28;20030;-81
2023/08/01 02:51:34;;;;;;;23.05;21.55;;;16.70;1.00;;;;;;5035971;28;20497;-82
2023/08/01 02:54:01;;;;;;;22.50;21.15;;;16.80;1.00;;;;;;5038802;28;20402;-82
2023/08/01 02:56:27;;;;;;;21.63;20.33;;;16.70;1.00;;;;;;5040479;28;20486;-82
2023/08/01 02:58:55;;;;;;;20.33;19.02;;;16.70;1.00;;;;;;5052742;28;20052;-82
2023/08/01 03:01:21;;;;;;;21.35;20.05;;;16.70;1.00;;;;;;5040627;28;20447;-82
2023/08/01 03:03:47;;;;;;;21.73;20.25;;;16.70;1.00;;;;;;5043191;28;20036;-82
2023/08/01 03:06:15;;;;;;;22.88;21.58;;;16.80;1.00;;;;;;5037307;28;20029;-82
2023/08/01 03:08:41;;;;;;;21.55;20.17;;;16.80;1.00;;;;;;5035267;28;20060;-80
2023/08/01 03:11:07;;;;;;;23.05;21.70;;;16.80;1.00;;;;;;5039550;28;20047;-81
2023/08/01 03:13:33;;;;;;;20.20;18.95;;;16.80;1.00;;;;;;5042046;28;20040;-80
2023/08/01 03:15:59;;;;;;;19.70;18.60;;;16.80;1.00;;;;;;5037580;28;20045;-80
2023/08/01 03:18:26;;;;;;;21.75;20.45;;;16.80;1.00;;;;;;5041075;28;20053;-81
2023/08/01 03:20:52;;;;;;;20.58;19.42;;;16.80;1.00;;;;;;5052973;28;20048;-81
2023/08/01 03:23:18;;;;;;;21.48;19.95;;;16.80;1.00;;;;;;5040120;28;20037;-81
2023/08/01 03:25:47;;;;;;;20.38;19.17;;;16.80;1.00;;;;;;5042555;28;20029;-80
2023/08/01 03:28:14;;;;;;;21.45;20.25;;;16.80;1.00;;;;;;5039712;28;20032;-81
2023/08/01 03:30:40;;;;;;;20.33;19.02;;;16.80;1.00;;;;;;5048767;28;20067;-81
2023/08/01 03:33:06;;;;;;;21.80;20.60;;;16.80;1.00;;;;;;5031959;28;20034;-81
2023/08/01 03:35:32;;;;;;;22.90;21.45;;;16.80;1.00;;;;;;5034910;28;20025;-80
2023/08/01 03:37:58;;;;;;;21.50;20.27;;;16.80;1.00;;;;;;5033952;28;20037;-82
2023/08/01 03:40:24;;;;;;;19.50;18.48;;;16.80;1.00;;;;;;5046466;28;20057;-82
2023/08/01 03:42:50;;;;;;;20.45;19.05;;;16.90;1.00;;;;;;5055647;28;20068;-82
2023/08/01 03:45:17;;;;;;;21.80;20.45;;;16.90;1.00;;;;;;5039312;28;20380;-81
2023/08/01 03:47:43;;;;;;;21.75;20.40;;;16.90;99.90;;;;;;5035958;28;20029;-81
2023/08/01 03:50:09;;;;;;;19.42;18.33;;;16.90;99.90;;;;;;5054941;28;20048;-80
2023/08/01 03:52:35;;;;;;;18.80;17.67;;;16.90;99.90;;;;;;5050963;28;20482;-80
2023/08/01 03:55:02;;;;;;;21.83;20.63;;;16.90;99.90;;;;;;5040470;28;20036;-79
2023/08/01 03:57:28;;;;;;;20.75;19.35;;;16.80;99.90;;;;;;5036961;28;20390;-81
2023/08/01 03:59:55;;;;;;;20.45;19.25;;;16.80;99.90;;;;;;5036540;28;20049;-82
2023/08/01 04:02:21;;;;;;;21.27;20.00;;;16.80;99.90;;;;;;5039290;28;20320;-83
2023/08/01 04:04:47;;;;;;;20.38;19.30;;;16.80;99.90;;;;;;5042604;28;20371;-81
2023/08/01 04:07:13;;;;;;;20.55;19.30;;;16.80;99.90;;;;;;5038694;28;20037;-80
2023/08/01 04:09:39;;;;;;;20.75;19.55;;;16.80;99.90;;;;;;5041180;28;20040;-80
2023/08/01 04:12:06;;;;;;;21.08;19.60;;;16.80;99.90;;;;;;5035242;28;20032;-80
2023/08/01 04:14:33;;;;;;;22.55;21.25;;;16.80;99.90;;;;;;5036653;28;20034;-79
2023/08/01 04:17:00;;;;;;;21.58;20.38;;;16.80;99.90;;;;;;5034269;28;20037;-79
2023/08/01 04:19:26;;;;;;;19.10;18.00;;;16.70;99.90;;;;;;5035062;28;20040;-79
2023/08/01 04:21:52;;;;;;;20.70;19.60;;;16.70;1.00;;;;;;5039817;28;20029;-77
2023/08/01 04:24:18;;;;;;;23.27;21.85;;;16.70;1.00;;;;;;5035904;28;20037;-78
2023/08/01 04:26:44;;;;;;;22.77;21.38;;;16.70;1.00;;;;;;5038178;28;20045;-79
2023/08/01 04:29:10;;;;;;;22.30;20.80;;;16.70;1.00;;;;;;5040382;28;20029;-78
2023/08/01 04:31:36;;;;;;;21.02;19.77;;;16.70;1.00;;;;;;5039929;28;20050;-78
2023/08/01 04:34:02;;;;;;;21.70;20.42;;;16.70;1.00;;;;;;5036578;28;20032;-79
2023/08/01 04:36:29;;;;;;;21.02;19.70;;;16.70;1.00;;;;;;5037072;28;20057;-79
2023/08/01 04:38:55;;;;;;;21.00;19.70;;;16.70;1.00;;;;;;5038188;28;20390;-79
2023/08/01 04:41:21;;;;;;;20.92;19.60;;;16.70;1.00;;;;;;5035123;28;20394;-79
2023/08/01 04:43:47;;;;;;;20.52;19.40;;;16.70;1.00;;;;;;5035822;28;20399;-79
2023/08/01 04:46:13;;;;;;;19.30;18.20;;;16.70;1.00;;;;;;5032165;28;20036;-79
2023/08/01 04:48:39;;;;;;;20.73;19.63;;;16.70;1.00;;;;;;5034884;28;20029;-78
2023/08/01 04:51:05;;;;;;;21.15;19.98;;;16.70;1.00;;;;;;5035941;28;20414;-78
2023/08/01 04:53:31;;;;;;;22.13;21.02;;;16.70;1.00;;;;;;5041277;28;20459;-77
2023/08/01 04:55:57;;;;;;;20.50;19.13;;;16.70;1.00;;;;;;5036734;28;20041;-78
2023/08/01 04:58:24;;;;;;;21.67;20.48;;;16.70;1.00;;;;;;5036254;28;20033;-79
2023/08/01 05:00:51;;;;;;;19.05;17.95;;;16.70;1.00;;;;;;5041222;28;20057;-81
2023/08/01 05:03:18;;;;;;;20.20;18.80;;;16.70;1.00;;;;;;5045380;28;20113;-81
2023/08/01 05:05:44;;;;;;;24.75;22.73;;;16.70;1.00;;;;;;5045228;28;20034;-80
2023/08/01 05:08:10;;;;;;;29.67;27.13;;;16.70;1.00;;;;;;5038011;28;20029;-81
2023/08/01 05:10:36;;;;;;;30.70;27.73;;;16.70;1.00;;;;;;5041424;28;20045;-81
2023/08/01 05:13:02;;;;;;;31.50;28.83;;;16.70;1.00;;;;;;5040906;28;20032;-81
2023/08/01 05:15:28;;;;;;;30.70;27.73;;;16.70;1.00;;;;;;5042771;28;20038;-82
2023/08/01 05:17:55;;;;;;;27.30;24.75;;;16.70;1.00;;;;;;5040181;28;20458;-81
2023/08/01 05:20:22;;;;;;;27.17;24.85;;;16.70;1.00;;;;;;5044126;28;20033;-81
2023/08/01 05:22:48;;;;;;;26.75;24.75;;;16.70;1.00;;;;;;5059319;28;20386;-81
2023/08/01 05:25:14;;;;;;;23.20;21.63;;;16.70;1.00;;;;;;5037535;28;20037;-81
2023/08/01 05:27:40;;;;;;;23.35;21.55;;;16.70;1.00;;;;;;5041130;28;20041;-80
2023/08/01 05:30:07;;;;;;;23.35;21.83;;;16.60;1.00;;;;;;5042605;28;20029;-80
2023/08/01 05:32:33;;;;;;;26.30;24.38;;;16.70;1.00;;;;;;5042811;28;20076;-80
2023/08/01 05:34:59;;;;;;;29.27;26.85;;;16.70;1.00;;;;;;5043179;28;20036;-81
2023/08/01 05:37:25;;;;;;;31.38;28.67;;;16.70;1.00;;;;;;5043073;28;20036;-82
2023/08/01 05:39:55;;;;;;;32.17;28.88;;;16.60;1.00;;;;;;5040924;28;20738;-82
2023/08/01 05:42:21;;;;;;;30.80;27.95;;;16.70;1.00;;;;;;5039525;28;20048;-81
2023/08/01 05:44:47;;;;;;;32.95;29.65;;;16.60;1.00;;;;;;5037955;28;20044;-80
2023/08/01 05:47:13;;;;;;;30.83;28.25;;;16.60;1.00;;;;;;5041845;28;20962;-81
2023/08/01 05:49:41;;;;;;;31.65;28.88;;;16.50;1.00;;;;;;5036046;28;20040;-79
2023/08/01 05:52:07;;;;;;;31.73;28.80;;;16.50;1.00;;;;;;5037776;28;20026;-80
2023/08/01 05:54:33;;;;;;;32.20;29.02;;;16.50;1.00;;;;;;5040789;28;20386;-79
2023/08/01 05:56:59;;;;;;;29.23;26.75;;;16.50;1.00;;;;;;5037051;28;20049;-80
2023/08/01 05:59:26;;;;;;;28.88;26.33;;;16.50;1.00;;;;;;5040155;28;20042;-80
2023/08/01 06:01:53;;;;;;;25.00;23.10;;;16.40;1.00;;;;;;5040839;28;20471;-79
2023/08/01 06:04:19;;;;;;;20.05;18.75;;;16.30;1.00;;;;;;5038822;28;20025;-79
2023/08/01 06:06:46;;;;;;;21.17;19.88;;;16.30;1.00;;;;;;5037090;28;20036;-81
2023/08/01 06:09:12;;;;;;;21.08;19.80;;;16.20;1.00;;;;;;5034702;28;20036;-81
2023/08/01 06:11:38;;;;;;;21.40;20.05;;;16.20;1.00;;;;;;5040824;28;20033;-80
2023/08/01 06:14:04;;;;;;;20.33;19.13;;;16.20;1.00;;;;;;5035391;28;20033;-78
2023/08/01 06:16:30;;;;;;;21.08;19.92;;;16.20;1.00;;;;;;5033365;28;20045;-79
2023/08/01 06:18:56;;;;;;;20.60;19.27;;;16.10;1.00;;;;;;5039278;28;20026;-79
2023/08/01 06:21:23;;;;;;;20.63;19.42;;;16.10;1.00;;;;;;5056885;28;20033;-78
2023/08/01 06:23:49;;;;;;;21.45;20.17;;;16.10;1.00;;;;;;5034828;28;20037;-78
2023/08/01 06:26:15;;;;;;;21.88;20.48;;;16.10;1.00;;;;;;5036139;28;20664;-78
2023/08/01 06:28:42;;;;;;;20.48;19.27;;;16.10;1.00;;;;;;5034351;28;20032;-80
2023/08/01 06:31:08;;;;;;;21.20;20.10;;;16.10;1.00;;;;;;5035587;28;20053;-77
2023/08/01 06:33:34;;;;;;;21.58;20.33;;;16.10;1.00;;;;;;5035861;28;20040;-80
2023/08/01 06:36:00;;;;;;;20.48;19.20;;;16.10;1.00;;;;;;5038975;28;20038;-79
2023/08/01 06:38:26;;;;;;;23.13;21.73;;;16.10;1.00;;;;;;5036771;28;20030;-79
2023/08/01 06:40:52;;;;;;;22.27;20.88;;;16.20;1.00;;;;;;5041378;28;20038;-80
2023/08/01 06:43:18;;;;;;;20.45;19.25;;;16.20;1.00;;;;;;5043348;28;20049;-80
2023/08/01 06:45:45;;;;;;;19.88;18.67;;;16.30;1.00;;;;;;5054432;28;20033;-79
2023/08/01 06:48:11;;;;;;;21.73;20.45;;;16.30;1.00;;;;;;5035926;28;20406;-80
2023/08/01 06:50:37;;;;;;;19.77;18.83;;;16.30;1.00;;;;;;5033046;28;20041;-80
2023/08/01 06:53:03;;;;;;;20.55;19.45;;;16.30;1.00;;;;;;5039308;28;20101;-79
2023/08/01 06:55:29;;;;;;;21.67;20.45;;;16.30;1.00;;;;;;5044152;28;20048;-78
2023/08/01 06:57:55;;;;;;;19.95;18.95;;;16.30;1.00;;;;;;5047788;28;20030;-78
2023/08/01 07:00:21;;;;;;;20.63;19.52;;;16.40;1.00;;;;;;5035764;28;20045;-79
2023/08/01 07:02:48;;;;;;;21.00;19.90;;;16.40;1.00;;;;;;5043162;28;20056;-79
2023/08/01 07:05:14;;;;;;;18.95;18.05;;;16.50;1.00;;;;;;5040742;28;20494;-79
2023/08/01 07:07:40;;;;;;;20.35;19.35;;;16.50;1.00;;;;;;5036974;28;20037;-80
2023/08/01 07:10:07;;;;;;;21.20;20.10;;;16.60;1.00;;;;;;5034246;28;20031;-81
2023/08/01 07:12:33;;;;;;;20.95;19.88;;;16.60;1.00;;;;;;5052430;28;20486;-80
2023/08/01 07:14:59;;;;;;;21.08;19.98;;;16.70;1.00;;;;;;5041499;28;20033;-82
2023/08/01 07:17:25;;;;;;;18.52;17.65;;;16.80;1.00;;;;;;5036922;28;20037;-79
2023/08/01 07:19:51;;;;;;;18.70;17.60;;;16.90;99.90;;;;;;5037742;28;20037;-81
2023/08/01 07:22:18;;;;;;;18.73;17.73;;;17.00;99.90;;;;;;5054301;28;20220;-82
2023/08/01 07:24:44;;;;;;;18.73;17.85;;;17.10;99.90;;;;;;5041028;28;20034;-82
2023/08/01 07:27:11;;;;;;;18.02;17.17;;;17.10;99.90;;;;;;5041689;28;20100;-82
2023/08/01 07:29:38;;;;;;;17.50;16.70;;;17.10;99.90;;;;;;5038464;28;20044;-81
2023/08/01 07:32:04;;;;;;;17.95;17.15;;;17.10;99.90;;;;;;5019952;28;20033;-82
2023/08/01 07:34:31;;;;;;;17.70;16.80;;;17.20;99.90;;;;;;5031771;28;20045;-82
2023/08/01 07:36:57;;;;;;;16.85;16.05;;;17.20;99.90;;;;;;5036587;28;20029;-81
2023/08/01 07:39:23;;;;;;;18.10;17.20;;;17.20;99.90;;;;;;5054351;28;20029;-83
2023/08/01 07:41:49;;;;;;;19.90;18.98;;;17.30;99.90;;;;;;5040536;28;20063;-82
2023/08/01 07:44:16;;;;;;;19.13;18.23;;;17.40;99.90;;;;;;5038560;28;20025;-82
2023/08/01 07:46:42;;;;;;;18.55;17.75;;;17.50;99.90;;;;;;5046013;28;20044;-83
2023/08/01 07:49:08;;;;;;;20.48;19.50;;;17.60;99.90;;;;;;5043346;28;20029;-83
2023/08/01 07:51:34;;;;;;;16.83;15.93;;;17.70;99.90;;;;;;5035656;28;20367;-85
2023/08/01 07:54:00;;;;;;;15.40;14.63;;;17.60;99.90;;;;;;5039633;28;20040;-86
2023/08/01 07:56:26;;;;;;;14.23;13.50;;;17.60;99.90;;;;;;5042401;28;20037;-83
2023/08/01 07:58:52;;;;;;;16.25;15.45;;;17.60;99.90;;;;;;5040179;28;20041;-83
2023/08/01 08:01:19;;;;;;;18.52;17.55;;;17.60;99.90;;;;;;5039773;28;20033;-84
2023/08/01 08:03:45;;;;;;;16.63;15.93;;;17.50;99.90;;;;;;5041608;28;20033;-85
2023/08/01 08:06:11;;;;;;;15.13;14.32;;;17.40;99.90;;;;;;5039615;28;20041;-86
2023/08/01 08:08:37;;;;;;;16.10;15.35;;;17.50;99.90;;;;;;5042673;28;20029;-85
2023/08/01 08:11:03;;;;;;;15.70;15.00;;;17.50;99.90;;;;;;5038580;28;20037;-88
2023/08/01 08:13:30;;;;;;;15.25;14.45;;;17.50;99.90;;;;;;5040037;28;20467;-85
2023/08/01 08:15:56;;;;;;;14.55;13.85;;;17.60;99.90;;;;;;5038609;28;20056;-85
2023/08/01 08:18:23;;;;;;;17.00;16.00;;;17.60;99.90;;;;;;5035805;28;20033;-85
2023/08/01 08:20:49;;;;;;;14.95;14.25;;;17.60;99.90;;;;;;5051438;28;20501;-84
2023/08/01 08:23:16;;;;;;;16.27;15.48;;;17.50;99.90;;;;;;5045878;28;20040;-87
2023/08/01 08:25:44;;;;;;;13.40;12.75;;;17.50;99.90;;;;;;5036350;28;20025;-84
2023/08/01 08:28:13;;;;;;;14.40;13.80;;;17.00;27.90;;;;;;5058039;28;20132;-85
2023/08/01 08:30:39;;;;;;;13.85;13.35;;;16.60;1.00;;;;;;5040532;28;20037;-86
2023/08/01 08:33:06;;;;;;;12.63;12.13;;;16.30;1.00;;;;;;5032067;28;20037;-87
2023/08/01 08:35:35;;;;;;;13.02;12.52;;;16.00;5.10;;;;;;5036026;28;20021;-86
2023/08/01 08:38:06;;;;;;;14.60;14.00;;;16.00;59.80;;;;;;5058959;28;20050;-86
2023/08/01 08:40:33;;;;;;;15.07;14.20;;;16.10;99.90;;;;;;5040960;28;20048;-85
2023/08/01 08:43:05;;;;;;;13.10;12.60;;;16.40;99.90;;;;;;5036548;28;20037;-85
2023/08/01 08:45:35;;;;;;;13.15;12.65;;;16.60;99.90;;;;;;5032961;28;20033;-85
2023/08/01 08:48:08;;;;;;;14.82;14.20;;;16.80;99.90;;;;;;5042871;28;20041;-86
2023/08/01 08:50:35;;;;;;;11.90;11.35;;;17.00;99.90;;;;;;5035918;28;20033;-87
2023/08/01 08:53:02;;;;;;;13.38;12.88;;;17.40;99.90;;;;;;5038614;28;20417;-87
2023/08/01 08:55:31;;;;;;;13.95;13.25;;;17.70;99.90;;;;;;5058031;28;20029;-87
2023/08/01 08:57:59;;;;;;;13.35;12.52;;;17.80;94.80;;;;;;5038398;28;20490;-87
2023/08/01 09:00:27;;;;;;;13.77;13.18;;;18.00;1.00;;;;;;5034499;28;20041;-87
2023/08/01 09:02:53;;;;;;;13.95;13.43;;;18.50;1.00;;;;;;5039510;28;20431;-86
2023/08/01 09:05:22;;;;;;;12.30;11.80;;;18.70;99.90;;;;;;5039335;28;20034;-86
2023/08/01 09:07:51;;;;;;;14.32;13.73;;;19.00;99.90;;;;;;5051754;28;20025;-87
2023/08/01 09:10:17;;;;;;;14.45;13.95;;;19.50;99.90;;;;;;5038540;28;20553;-88
2023/08/01 09:12:43;;;;;;;14.30;13.80;;;19.70;99.90;;;;;;5039382;28;20037;-86
2023/08/01 09:15:10;;;;;;;15.68;15.07;;;19.90;99.90;;;;;;5040209;28;20033;-86
2023/08/01 09:17:48;;;;;;;14.70;14.13;;;19.80;99.90;;;;;;5038553;28;20040;-87
2023/08/01 09:20:14;;;;;;;14.02;13.52;;;19.90;99.90;;;;;;5038002;28;20044;-86
2023/08/01 09:22:45;;;;;;;14.55;14.02;;;19.80;99.90;;;;;;5041882;28;20042;-86
2023/08/01 09:25:12;;;;;;;17.75;16.98;;;19.80;99.90;;;;;;5035653;28;20049;-89
2023/08/01 09:27:38;;;;;;;16.85;16.23;;;19.90;99.90;;;;;;5036500;28;20032;-87
2023/08/01 09:30:15;;;;;;;15.82;15.23;;;20.50;99.90;;;;;;5038035;28;20032;-92
2023/08/01 09:32:52;;;;;;;20.38;19.67;;;20.60;99.90;;;;;;5038342;28;20045;-90
2023/08/01 09:35:18;;;;;;;15.30;14.73;;;20.60;99.90;;;;;;5036803;28;20037;-90
2023/08/01 09:37:44;;;;;;;22.65;21.85;;;21.00;99.90;;;;;;5036442;28;20029;-89
2023/08/01 09:40:11;;;;;;;19.02;18.23;;;21.00;99.90;;;;;;5037930;28;20036;-85
2023/08/01 09:42:41;;;;;;;18.98;18.27;;;20.80;47.50;;;;;;5034623;28;20049;-87
2023/08/01 09:45:15;;;;;;;22.48;21.58;;;21.00;42.50;;;;;;5038270;28;20489;-85
2023/08/01 09:47:42;;;;;;;20.38;19.45;;;21.10;1.00;;;;;;5040840;28;20037;-87
2023/08/01 09:50:19;;;;;;;19.05;18.35;;;21.00;1.40;;;;;;5037687;28;20037;-85
2023/08/01 09:52:54;;;;;;;17.98;17.25;;;20.70;1.00;;;;;;5040351;28;20044;-91
2023/08/01 09:55:31;;;;;;;16.75;16.15;;;20.40;1.00;;;;;;5029053;28;20042;-87
2023/08/01 09:57:59;;;;;;;15.57;15.05;;;20.40;16.40;;;;;;5050594;28;20040;-87
2023/08/01 10:00:26;;;;;;;15.73;15.13;;;20.30;1.00;;;;;;5035527;28;20057;-91
2023/08/01 10:02:54;;;;;;;16.77;16.17;;;20.80;1.00;;;;;;5043087;28;20046;-88
2023/08/01 10:05:21;;;;;;;17.25;16.55;;;21.00;1.00;;;;;;5050647;28;20033;-90
2023/08/01 10:07:51;;;;;;;19.73;19.02;;;21.20;1.00;;;;;;5040655;28;20030;-84
2023/08/01 10:10:18;;;;;;;21.70;20.90;;;21.40;99.90;;;;;;5059166;28;20001;-86
2023/08/01 10:12:48;;;;;;;13.45;12.95;;;21.30;99.90;;;;;;5062085;28;20446;-85
2023/08/01 10:15:15;;;;;;;;;;;21.40;99.90;;;;;;5064997;28;20042;-86
2023/08/01 10:17:41;;;;;;;18.10;17.35;;;21.40;99.90;;;;;;5064268;28;19935;-86
2023/08/01 10:20:09;;;;;;;14.70;14.10;;;21.20;99.90;;;;;;5061927;28;20033;-87
2023/08/01 10:22:35;;;;;;;17.08;16.45;;;21.10;99.90;;;;;;5062231;28;20107;-87
2023/08/01 10:25:04;;;;;;;16.10;15.50;;;21.40;99.90;;;;;;5036837;28;20060;-87
2023/08/01 10:27:30;;;;;;;14.07;13.57;;;21.50;99.90;;;;;;5053669;28;20045;-84
2023/08/01 10:30:01;;;;;;;14.85;14.35;;;21.30;99.90;;;;;;5042331;28;20057;-87
2023/08/01 10:32:34;;;;;;;21.92;21.02;;;21.20;99.90;;;;;;5039189;28;20041;-88
2023/08/01 10:35:00;;;;;;;18.70;18.00;;;21.40;99.90;;;;;;5036685;28;20516;-88
2023/08/01 10:37:27;;;;;;;17.10;16.40;;;21.20;99.90;;;;;;5042265;28;20395;-84
2023/08/01 10:39:58;;;;;;;15.20;14.60;;;21.40;99.90;;;;;;5040249;28;20036;-86
2023/08/01 10:42:25;;;;;;;15.50;14.90;;;21.90;99.90;;;;;;5039255;28;20045;-85
2023/08/01 10:44:51;;;;;;;18.08;17.27;;;21.80;96.30;;;;;;5037186;28;20041;-85
2023/08/01 10:47:31;;;;;;;16.95;16.25;;;21.80;96.50;;;;;;5039321;28;20509;-86
2023/08/01 10:49:58;;;;;;;16.08;15.40;;;21.90;99.90;;;;;;5038752;28;20029;-85
2023/08/01 10:52:29;;;;;;;15.73;15.02;;;21.70;99.90;;;;;;5037776;28;20048;-85
2023/08/01 10:54:57;;;;;;;14.57;13.98;;;21.10;99.90;;;;;;5035912;28;20076;-91
2023/08/01 10:57:23;;;;;;;16.85;15.88;;;20.30;99.90;;;;;;5038598;28;20029;-83
2023/08/01 10:59:50;;;;;;;15.93;15.13;;;19.00;39.10;;;;;;5039706;28;20045;-86
2023/08/01 11:02:24;;;;;;;13.88;13.27;;;17.70;91.00;;;;;;5044392;28;20033;-85
2023/08/01 11:05:04;;;;;;;13.02;12.43;;;17.40;99.90;;;;;;5041753;28;20033;-84
2023/08/01 11:07:30;;;;;;;;;;;17.10;99.90;;;;;;5034437;28;20037;-86
2023/08/01 11:10:13;;;;;;;14.25;13.65;;;17.20;1.00;;;;;;5037742;28;19909;-85
2023/08/01 11:12:42;;;;;;;14.68;14.02;;;17.20;99.90;;;;;;5040091;28;20033;-85
2023/08/01 11:15:10;;;;;;;15.23;14.52;;;17.50;1.00;;;;;;5036858;28;20040;-88
2023/08/01 11:17:38;;;;;;;13.30;12.70;;;17.90;1.00;;;;;;5044442;28;20025;-85
2023/08/01 11:20:09;;;;;;;13.02;12.52;;;18.20;99.90;;;;;;5043743;28;20032;-89
2023/08/01 11:22:49;;;;;;;13.98;13.38;;;18.40;99.90;;;;;;5042482;28;20044;-88
2023/08/01 11:25:15;;;;;;;13.83;13.30;;;18.60;99.90;;;;;;5042128;28;20037;-85
2023/08/01 11:27:41;;;;;;;20.08;19.27;;;19.00;62.10;;;;;;5038336;28;20268;-86
2023/08/01 11:30:08;;;;;;;16.80;16.05;;;19.00;1.00;;;;;;5057530;28;20394;-91
2023/08/01 11:32:35;;;;;;;16.98;16.30;;;18.90;1.00;;;;;;5040010;28;20045;-87
2023/08/01 11:35:02;;;;;;;12.43;11.93;;;19.00;1.00;;;;;;5041609;28;20042;-90
2023/08/01 11:37:30;;;;;;;18.45;17.65;;;19.20;1.00;;;;;;5054174;28;20064;-90
2023/08/01 11:39:57;;;;;;;16.45;15.75;;;19.40;99.90;;;;;;5041531;28;20029;-90
2023/08/01 11:42:23;;;;;;;16.05;15.23;;;19.40;99.90;;;;;;5037572;28;20045;-86
2023/08/01 11:44:49;;;;;;;16.20;15.50;;;19.50;99.90;;;;;;5059820;28;20026;-89
2023/08/01 11:47:17;;;;;;;16.65;15.85;;;19.80;99.90;;;;;;5040025;28;20036;-88
2023/08/01 11:49:48;;;;;;;41.13;39.67;;;19.80;99.90;;;;;;5045192;28;20032;-90
2023/08/01 11:52:28;;;;;;;37.22;35.90;;;19.50;99.90;;;;;;5038946;28;20041;-87
2023/08/01 11:54:55;;;;;;;40.58;39.13;;;19.50;99.90;;;;;;5037336;28;20351;-88
2023/08/01 11:57:21;;;;;;;20.95;20.15;;;19.40;27.20;;;;;;5043559;28;20034;-86
2023/08/01 11:59:54;;;;;;;17.77;17.10;;;19.50;99.90;;;;;;5058564;28;20055;-91
2023/08/01 12:02:30;;;;;;;15.00;14.40;;;19.60;99.90;;;;;;5042176;28;20056;-88
2023/08/01 12:04:56;;;;;;;15.05;14.43;;;19.70;99.90;;;;;;5041211;28;20029;-92
2023/08/01 12:07:25;;;;;;;15.13;14.52;;;20.10;99.90;;;;;;5040024;28;20025;-87
2023/08/01 12:09:59;;;;;;;18.70;18.00;;;20.50;99.90;;;;;;5045184;28;20059;-87
2023/08/01 12:12:29;;;;;;;15.77;15.18;;;20.90;1.00;;;;;;5042494;28;20067;-90
2023/08/01 12:14:55;;;;;;;16.02;15.43;;;21.20;1.00;;;;;;5039606;28;20033;-87
2023/08/01 12:17:22;;;;;;;14.77;14.18;;;21.10;1.00;;;;;;5035851;28;20032;-91
2023/08/01 12:19:48;;;;;;;15.93;15.23;;;21.30;99.90;;;;;;5037156;28;20025;-87
2023/08/01 12:22:15;;;;;;;15.73;15.02;;;21.50;1.00;;;;;;5038324;28;20075;-89
2023/08/01 12:24:41;;;;;;;25.63;24.63;;;21.60;1.00;;;;;;5033061;28;20030;-87
2023/08/01 12:27:08;;;;;;;13.70;13.10;;;21.30;99.90;;;;;;5044281;28;20033;-89
2023/08/01 12:29:35;;;;;;;13.18;12.68;;;21.40;99.90;;;;;;5039333;28;20037;-86